createdAt,value
2023-02-16T00:00:39.498Z,34.30
2023-02-16T00:05:42.472Z,34.50
2023-02-16T00:11:07.085Z,34.40
2023-02-16T00:16:14.154Z,34.20
2023-02-16T00:21:17.386Z,33.60
2023-02-16T00:26:21.545Z,34.10
2023-02-16T00:31:27.734Z,34.40
2023-02-16T00:36:31.503Z,34.30
2023-02-16T00:41:53.765Z,34.10
2023-02-16T00:46:58.078Z,34.20
2023-02-16T00:52:00.969Z,34.00
2023-02-16T00:57:04.054Z,34.10
2023-02-16T01:02:08.494Z,34.10
2023-02-16T01:07:29.977Z,34.00
2023-02-16T01:12:32.815Z,34.10
2023-02-16T01:17:36.991Z,33.90
2023-02-16T01:22:39.817Z,34.00
2023-02-16T01:27:43.668Z,33.90
2023-02-16T01:32:51.513Z,33.80
2023-02-16T01:37:54.399Z,33.80
2023-02-16T01:43:00.518Z,33.90
2023-02-16T01:48:07.095Z,33.80
2023-02-16T01:53:17.284Z,33.60
2023-02-16T01:58:26.714Z,33.80
2023-02-16T02:03:50.513Z,33.70
2023-02-16T02:08:59.445Z,33.70
2023-02-16T02:14:08.185Z,33.70
2023-02-16T02:19:12.634Z,33.50
2023-02-16T02:24:43.121Z,33.30
2023-02-16T02:30:09.009Z,33.50
2023-02-16T02:35:20.209Z,33.60
2023-02-16T02:40:31.754Z,33.50
2023-02-16T02:45:38.694Z,33.60
2023-02-16T02:51:07.499Z,33.30
2023-02-16T02:56:28.910Z,33.30
2023-02-16T03:01:34.702Z,33.40
2023-02-16T03:06:39.839Z,33.30
2023-02-16T03:12:00.810Z,33.20
2023-02-16T03:17:25.063Z,33.10
2023-02-16T03:22:45.602Z,33.20
2023-02-16T03:28:06.147Z,33.20
2023-02-16T03:33:10.319Z,33.20
2023-02-16T03:38:13.890Z,33.10
2023-02-16T03:43:16.706Z,33.10
2023-02-16T03:48:21.259Z,32.90
2023-02-16T03:53:24.175Z,33.10
2023-02-16T03:58:27.127Z,33.10
2023-02-16T04:03:31.301Z,32.90
2023-02-16T04:08:34.156Z,32.90
2023-02-16T04:13:36.990Z,32.90
2023-02-16T04:18:41.199Z,32.90
2023-02-16T04:23:44.128Z,32.90
2023-02-16T04:28:46.936Z,32.80
2023-02-16T04:33:51.068Z,32.90
2023-02-16T04:38:53.916Z,32.80
2023-02-16T04:43:56.813Z,33.00
2023-02-16T04:49:00.951Z,32.90
2023-02-16T04:54:03.807Z,32.60
2023-02-16T04:59:06.829Z,32.70
2023-02-16T05:04:12.285Z,32.60
2023-02-16T05:09:15.330Z,32.90
2023-02-16T05:14:36.962Z,32.60
2023-02-16T05:19:41.960Z,32.70
2023-02-16T05:24:45.113Z,32.60
2023-02-16T05:29:47.984Z,32.50
2023-02-16T05:34:52.186Z,32.60
2023-02-16T05:39:55.037Z,32.40
2023-02-16T05:44:58.449Z,32.30
2023-02-16T05:50:02.587Z,32.60
2023-02-16T05:55:05.945Z,32.50
2023-02-16T06:00:11.996Z,32.50
2023-02-16T06:05:16.272Z,32.40
2023-02-16T06:10:19.451Z,32.50
2023-02-16T06:15:22.264Z,32.40
2023-02-16T06:20:27.508Z,32.40
2023-02-16T06:25:30.545Z,32.40
2023-02-16T06:30:35.267Z,32.10
2023-02-16T06:35:39.487Z,32.20
2023-02-16T06:40:42.349Z,32.10
2023-02-16T06:45:45.186Z,32.10
2023-02-16T06:50:49.382Z,31.90
2023-02-16T06:55:52.528Z,31.90
2023-02-16T07:00:55.767Z,32.20
2023-02-16T07:05:59.972Z,31.80
2023-02-16T07:11:02.822Z,31.80
2023-02-16T07:16:06.597Z,31.90
2023-02-16T07:21:10.770Z,32.00
2023-02-16T07:26:13.878Z,31.90
2023-02-16T07:31:17.727Z,31.80
2023-02-16T07:36:21.949Z,31.70
2023-02-16T07:41:24.782Z,31.80
2023-02-16T07:46:30.996Z,31.80
2023-02-16T07:51:36.506Z,31.80
2023-02-16T07:56:39.340Z,31.70
2023-02-16T08:01:42.558Z,32.50
2023-02-16T08:06:48.598Z,32.90
2023-02-16T08:11:51.853Z,32.60
2023-02-16T08:16:56.617Z,33.70
2023-02-16T08:22:02.340Z,33.60
2023-02-16T08:27:06.143Z,33.50
2023-02-16T08:32:11.997Z,33.60
2023-02-16T08:37:16.168Z,33.20
2023-02-16T08:42:19.053Z,32.20
2023-02-16T08:47:23.167Z,32.10
2023-02-16T08:52:27.424Z,32.10
2023-02-16T08:57:30.269Z,32.30
2023-02-16T09:02:33.905Z,32.40
2023-02-16T09:07:38.141Z,32.20
2023-02-16T09:12:40.939Z,32.30
2023-02-16T09:17:43.871Z,32.10
2023-02-16T09:22:48.541Z,32.40
2023-02-16T09:27:51.616Z,32.40
2023-02-16T09:32:55.267Z,32.30
2023-02-16T09:37:59.979Z,32.50
2023-02-16T09:43:08.254Z,32.60
2023-02-16T09:48:15.912Z,32.50
2023-02-16T09:53:25.266Z,32.60
2023-02-16T09:58:31.656Z,32.60
2023-02-16T10:03:47.385Z,32.50
2023-02-16T10:08:54.665Z,32.70
2023-02-16T10:14:01.445Z,32.80
2023-02-16T10:19:20.876Z,32.90
2023-02-16T10:24:26.004Z,32.80
2023-02-16T10:29:28.969Z,32.90
2023-02-16T10:34:40.843Z,33.10
2023-02-16T10:39:49.527Z,33.10
2023-02-16T10:44:57.175Z,33.10
2023-02-16T10:50:00.061Z,33.30
2023-02-16T10:55:04.437Z,32.80
2023-02-16T11:00:10.833Z,32.70
2023-02-16T11:05:33.293Z,33.20
2023-02-16T11:10:46.131Z,34.00
2023-02-16T11:15:52.717Z,34.50
2023-02-16T11:20:56.291Z,34.70
2023-02-16T11:26:07.355Z,34.60
2023-02-16T11:31:18.542Z,33.90
2023-02-16T11:36:28.312Z,34.10
2023-02-16T11:41:33.874Z,34.10
2023-02-16T11:46:41.688Z,33.70
2023-02-16T11:51:44.536Z,33.50
2023-02-16T11:57:02.478Z,33.50
2023-02-16T12:02:46.387Z,33.60
2023-02-16T12:07:56.292Z,33.50
2023-02-16T12:13:05.298Z,33.70
2023-02-16T12:18:28.896Z,33.50
2023-02-16T12:23:40.164Z,33.50
2023-02-16T12:28:51.009Z,33.80
2023-02-16T12:34:02.190Z,33.50
2023-02-16T12:39:14.229Z,33.50
2023-02-16T12:44:22.063Z,33.30
2023-02-16T12:49:27.542Z,33.30
2023-02-16T12:54:33.876Z,33.30
2023-02-16T12:59:40.714Z,33.30
2023-02-16T13:04:45.639Z,33.10
2023-02-16T13:09:54.055Z,33.40
2023-02-16T13:15:04.659Z,33.60
2023-02-16T13:20:16.615Z,33.50
2023-02-16T13:25:49.414Z,33.30
2023-02-16T13:31:05.767Z,32.70
2023-02-16T13:36:19.759Z,32.90
2023-02-16T13:41:34.639Z,32.50
2023-02-16T13:46:42.143Z,32.30
2023-02-16T13:51:47.266Z,32.50
2023-02-16T13:56:50.209Z,32.40
2023-02-16T14:01:55.857Z,32.30
2023-02-16T14:07:23.713Z,32.00
2023-02-16T14:12:31.270Z,31.80
2023-02-16T14:17:36.886Z,32.40
2023-02-16T14:22:47.686Z,32.00
2023-02-16T14:27:52.449Z,32.20
2023-02-16T14:33:00.461Z,32.60
2023-02-16T14:38:05.007Z,32.50
2023-02-16T14:43:16.918Z,33.10
2023-02-16T14:48:33.269Z,33.40
2023-02-16T14:54:00.419Z,32.90
2023-02-16T14:59:05.655Z,32.70
2023-02-16T15:04:11.903Z,33.00
2023-02-16T15:09:17.267Z,32.90
2023-02-16T15:14:20.959Z,32.90
2023-02-16T15:19:29.614Z,33.10
2023-02-16T15:24:34.304Z,33.20
2023-02-16T15:29:38.639Z,33.20
2023-02-16T15:34:43.410Z,33.40
2023-02-16T15:40:03.015Z,33.60
2023-02-16T15:45:26.787Z,33.70
2023-02-16T15:50:31.730Z,33.50
2023-02-16T15:55:34.563Z,33.50
2023-02-16T16:00:37.666Z,33.00
2023-02-16T16:05:43.703Z,32.10
2023-02-16T16:10:48.545Z,32.30
2023-02-16T16:15:52.745Z,32.40
2023-02-16T16:21:02.725Z,32.40
2023-02-16T16:26:17.696Z,32.10
2023-02-16T16:31:33.746Z,32.40
2023-02-16T16:36:40.365Z,32.70
2023-02-16T16:41:44.888Z,33.30
2023-02-16T16:46:47.668Z,33.40
2023-02-16T16:51:54.410Z,33.20
2023-02-16T16:56:57.931Z,33.00
2023-02-16T17:02:00.844Z,32.90
2023-02-16T17:07:05.093Z,32.90
2023-02-16T17:12:11.104Z,33.00
2023-02-16T17:17:14.115Z,33.10
2023-02-16T17:22:20.480Z,33.10
2023-02-16T17:27:24.223Z,33.10
2023-02-16T17:32:27.937Z,33.10
2023-02-16T17:37:33.838Z,33.10
2023-02-16T17:42:36.630Z,33.20
2023-02-16T17:47:39.528Z,33.20
2023-02-16T17:52:44.074Z,33.30
2023-02-16T17:57:47.165Z,33.30
2023-02-16T18:02:50.078Z,33.30
2023-02-16T18:07:54.318Z,33.10
2023-02-16T18:12:57.152Z,33.40
2023-02-16T18:18:00.054Z,33.20
2023-02-16T18:23:04.726Z,33.30
2023-02-16T18:28:07.542Z,33.40
2023-02-16T18:33:10.668Z,33.40
2023-02-16T18:38:14.826Z,33.20
2023-02-16T18:43:17.719Z,33.60
2023-02-16T18:48:21.686Z,33.30
2023-02-16T18:53:25.868Z,33.50
2023-02-16T18:58:28.701Z,33.70
2023-02-16T19:03:31.537Z,33.50
2023-02-16T19:08:35.683Z,33.60
2023-02-16T19:13:38.588Z,33.50
2023-02-16T19:18:41.508Z,33.50
2023-02-16T19:23:46.776Z,33.50
2023-02-16T19:28:49.669Z,33.50
2023-02-16T19:33:53.056Z,33.60
2023-02-16T19:38:57.393Z,33.60
2023-02-16T19:44:00.326Z,33.70
2023-02-16T19:49:03.296Z,33.60
2023-02-16T19:54:07.512Z,33.50
2023-02-16T19:59:10.799Z,33.70
2023-02-16T20:04:13.671Z,33.60
2023-02-16T20:09:18.623Z,33.70
2023-02-16T20:14:21.428Z,33.60
2023-02-16T20:19:24.293Z,33.50
2023-02-16T20:24:28.551Z,33.60
2023-02-16T20:29:32.127Z,33.50
2023-02-16T20:34:35.118Z,33.60
2023-02-16T20:39:39.259Z,33.50
2023-02-16T20:44:42.118Z,33.50
2023-02-16T20:49:44.970Z,33.40
2023-02-16T20:54:49.174Z,33.40
2023-02-16T20:59:53.759Z,33.50
2023-02-16T21:04:56.855Z,33.50
2023-02-16T21:10:02.505Z,33.40
2023-02-16T21:15:05.829Z,33.40
2023-02-16T21:20:09.795Z,33.50
2023-02-16T21:25:13.963Z,33.30
2023-02-16T21:30:17.080Z,33.40
2023-02-16T21:35:20.312Z,33.20
2023-02-16T21:40:42.058Z,33.40
2023-02-16T21:45:45.495Z,33.30
2023-02-16T21:50:48.434Z,33.30
2023-02-16T21:56:11.660Z,33.20
2023-02-16T22:01:16.538Z,33.30
2023-02-16T22:06:19.422Z,33.20
2023-02-16T22:11:23.629Z,33.30
2023-02-16T22:16:28.524Z,33.20
2023-02-16T22:21:31.857Z,33.20
2023-02-16T22:26:36.829Z,33.20
2023-02-16T22:31:40.326Z,33.10
2023-02-16T22:36:43.650Z,33.20
2023-02-16T22:41:50.988Z,33.10
2023-02-16T22:46:54.827Z,33.30
2023-02-16T22:51:58.480Z,33.30
2023-02-16T22:57:02.652Z,33.00
2023-02-16T23:02:05.531Z,32.90
2023-02-16T23:07:08.510Z,33.20
2023-02-16T23:12:12.685Z,33.20
2023-02-16T23:17:16.330Z,33.00
2023-02-16T23:22:19.278Z,33.10
2023-02-16T23:27:23.951Z,33.10
2023-02-16T23:32:28.236Z,33.10
2023-02-16T23:37:31.882Z,33.20
2023-02-16T23:42:36.322Z,33.10
2023-02-16T23:47:39.224Z,33.00
2023-02-16T23:52:42.115Z,33.00
2023-02-16T23:57:46.260Z,32.90
